Time;durP1;ratioP1;P1;durP2;ratioP2;P2;SDS_P1;SDS_P2;PMS_P1;PMS_P2;Temp;Humidity;BMP_temperature;BMP_pressure;BME280_temperature;BME280_humidity;BME280_pressure;Samples;Min_cycle;Max_cycle;Signal;HPM_P1;HPM_P2
2022/03/13 00:00:11;;;;;;;5.40;2.70;;;19.90;43.50;;;;;;4998780;28;90118;-66
2022/03/13 00:02:39;;;;;;;4.27;2.10;;;19.90;43.60;;;;;;4999063;28;88471;-66
2022/03/13 00:05:10;;;;;;;3.00;1.83;;;20.00;43.60;;;;;;4999675;28;88510;-66
2022/03/13 00:07:39;;;;;;;4.17;2.30;;;19.90;43.50;;;;;;4984253;28;92552;-66
2022/03/13 00:10:12;;;;;;;5.90;2.40;;;19.90;43.50;;;;;;4978074;28;89256;-66
2022/03/13 00:12:40;;;;;;;3.37;2.27;;;19.90;43.50;;;;;;4979238;28;88601;-66
2022/03/13 00:15:12;;;;;;;3.73;2.33;;;19.90;43.50;;;;;;4979704;28;88492;-66
2022/03/13 00:17:40;;;;;;;4.80;2.50;;;19.90;43.50;;;;;;4993159;28;90659;-66
2022/03/13 00:20:10;;;;;;;4.13;2.00;;;19.90;43.50;;;;;;4998878;28;90174;-66
2022/03/13 00:22:38;;;;;;;4.27;2.20;;;19.90;43.50;;;;;;4998998;28;88788;-66
2022/03/13 00:25:09;;;;;;;2.97;2.23;;;19.90;43.50;;;;;;4999615;28;88557;-66
2022/03/13 00:27:37;;;;;;;3.93;2.40;;;19.90;43.50;;;;;;4983998;28;93952;-66
2022/03/13 00:30:06;;;;;;;2.83;2.30;;;19.90;43.50;;;;;;4979206;28;90482;-66
2022/03/13 00:32:34;;;;;;;2.37;1.83;;;19.90;43.50;;;;;;4991038;28;88666;-66
2022/03/13 00:35:02;;;;;;;2.17;1.70;;;19.90;43.50;;;;;;4999269;28;88510;-66
2022/03/13 00:37:31;;;;;;;2.33;1.73;;;19.90;43.50;;;;;;4995596;28;90793;-66
2022/03/13 00:40:00;;;;;;;2.50;1.87;;;19.90;43.50;;;;;;4998720;28;90032;-66
2022/03/13 00:42:28;;;;;;;2.47;1.63;;;19.90;43.50;;;;;;4999263;28;88878;-66
2022/03/13 00:44:56;;;;;;;3.70;2.10;;;19.90;43.50;;;;;;4999236;28;88495;-66
2022/03/13 00:47:24;;;;;;;2.20;1.70;;;19.90;43.50;;;;;;4996758;28;90064;-67
2022/03/13 00:49:52;;;;;;;3.17;2.00;;;19.90;43.50;;;;;;4998522;28;93557;-66
2022/03/13 00:52:20;;;;;;;2.07;1.50;;;19.80;43.40;;;;;;4998413;28;88667;-66
2022/03/13 00:54:50;;;;;;;2.97;2.30;;;19.90;43.50;;;;;;4998505;28;88455;-66
2022/03/13 00:57:18;;;;;;;2.27;1.80;;;19.90;43.50;;;;;;4990686;28;90835;-66
2022/03/13 00:59:46;;;;;;;3.50;1.73;;;19.90;43.50;;;;;;4978720;28;90085;-67
2022/03/13 01:02:14;;;;;;;3.20;2.20;;;19.80;43.30;;;;;;4978559;28;88958;-66
2022/03/13 01:04:42;;;;;;;3.13;2.10;;;19.90;43.50;;;;;;4978923;28;88116;-66
2022/03/13 01:07:10;;;;;;;2.87;1.83;;;19.80;43.30;;;;;;4979435;28;92089;-66
2022/03/13 01:09:38;;;;;;;1.77;1.67;;;19.80;43.30;;;;;;4978251;28;90099;-66
2022/03/13 01:12:10;;;;;;;2.40;1.43;;;19.80;43.30;;;;;;4979124;28;88875;-66
2022/03/13 01:14:37;;;;;;;2.87;1.80;;;19.80;43.30;;;;;;4978152;28;88913;-67
2022/03/13 01:17:07;;;;;;;2.57;1.80;;;19.90;43.40;;;;;;4978618;28;90713;-67
2022/03/13 01:19:35;;;;;;;2.10;1.77;;;19.80;43.30;;;;;;4978799;28;89944;-66
2022/03/13 01:22:03;;;;;;;2.53;1.60;;;19.80;43.30;;;;;;4981082;28;88847;-67
2022/03/13 01:24:31;;;;;;;2.93;1.20;;;19.80;43.30;;;;;;4981469;28;88474;-66
2022/03/13 01:27:04;;;;;;;1.40;1.20;;;19.80;43.30;;;;;;4981895;28;90653;-66
2022/03/13 01:29:34;;;;;;;2.90;2.00;;;19.80;43.30;;;;;;4981678;28;90112;-66
2022/03/13 01:32:02;;;;;;;3.30;1.90;;;19.90;43.40;;;;;;4982163;28;88895;-66
2022/03/13 01:34:42;;;;;;;2.53;1.57;;;19.80;43.30;;;;;;4981410;28;88612;-66
2022/03/13 01:37:14;;;;;;;1.80;1.30;;;19.80;43.30;;;;;;4981679;28;91000;-67
2022/03/13 01:39:43;;;;;;;1.60;1.50;;;19.80;43.30;;;;;;4981112;28;89977;-66
2022/03/13 01:42:11;;;;;;;1.83;1.47;;;19.80;43.30;;;;;;4981839;28;90062;-66
2022/03/13 01:44:40;;;;;;;2.03;1.47;;;19.80;43.30;;;;;;4980003;28;88705;-66
2022/03/13 01:47:09;;;;;;;1.67;1.50;;;19.80;43.20;;;;;;4981112;28;89603;-66
2022/03/13 01:49:37;;;;;;;1.47;1.37;;;19.80;43.20;;;;;;4981553;28;89420;-66
2022/03/13 01:52:05;;;;;;;1.90;1.60;;;19.80;43.20;;;;;;4980821;28;88670;-66
2022/03/13 01:54:33;;;;;;;1.67;1.37;;;19.80;43.20;;;;;;4981227;28;88597;-66
2022/03/13 01:57:02;;;;;;;2.33;1.40;;;19.80;43.20;;;;;;4981581;28;89565;-66
2022/03/13 01:59:30;;;;;;;2.67;1.30;;;19.80;43.20;;;;;;4980951;28;90066;-66
2022/03/13 02:01:59;;;;;;;3.70;1.30;;;19.80;43.20;;;;;;4983203;28;88913;-66
2022/03/13 02:04:30;;;;;;;2.87;1.83;;;19.80;43.20;;;;;;5000661;28;88402;-66
2022/03/13 02:06:58;;;;;;;1.30;1.20;;;19.80;43.20;;;;;;5001394;28;91007;-66
2022/03/13 02:09:27;;;;;;;3.60;2.00;;;19.70;43.20;;;;;;5001057;28;89185;-66
2022/03/13 02:11:55;;;;;;;1.93;1.07;;;19.80;43.30;;;;;;5001037;28;88945;-66
2022/03/13 02:14:24;;;;;;;1.67;1.50;;;19.70;43.20;;;;;;5000668;28;88502;-66
2022/03/13 02:16:52;;;;;;;0.97;0.93;;;19.80;43.30;;;;;;5000236;28;89888;-67
2022/03/13 02:19:21;;;;;;;1.90;1.20;;;19.70;43.20;;;;;;5001283;28;90102;-67
2022/03/13 02:21:52;;;;;;;2.37;1.50;;;19.70;43.20;;;;;;5001440;28;88907;-66
2022/03/13 02:24:24;;;;;;;1.50;1.40;;;19.70;43.20;;;;;;5000872;28;88485;-66
2022/03/13 02:26:57;;;;;;;1.30;1.17;;;19.70;43.20;;;;;;5000414;28;89433;-66
2022/03/13 02:29:25;;;;;;;2.47;1.13;;;19.80;43.30;;;;;;5000708;28;89973;-66
2022/03/13 02:31:53;;;;;;;2.00;1.50;;;19.70;43.20;;;;;;5000044;28;88914;-67
2022/03/13 02:34:21;;;;;;;1.53;1.43;;;19.70;43.20;;;;;;5000427;28;88500;-66
2022/03/13 02:36:57;;;;;;;1.27;1.17;;;19.70;43.20;;;;;;5000864;28;93408;-66
2022/03/13 02:39:26;;;;;;;1.60;1.30;;;19.70;43.20;;;;;;5000285;28;90021;-66
2022/03/13 02:41:54;;;;;;;1.63;0.83;;;19.70;43.20;;;;;;5000544;28;88858;-66
2022/03/13 02:44:22;;;;;;;1.33;0.83;;;19.70;43.20;;;;;;4999558;28;88670;-66
2022/03/13 02:46:58;;;;;;;0.60;0.60;;;19.70;43.80;;;;;;5000790;28;93958;-66
2022/03/13 02:49:27;;;;;;;1.80;1.33;;;19.70;43.80;;;;;;4999908;28;89978;-66
2022/03/13 02:51:56;;;;;;;2.03;1.17;;;19.70;43.20;;;;;;5000751;28;88994;-66
2022/03/13 02:54:25;;;;;;;1.13;0.97;;;19.60;43.10;;;;;;5000237;28;88433;-66
2022/03/13 02:56:53;;;;;;;0.80;0.80;;;19.60;43.30;;;;;;5000538;28;90651;-67
2022/03/13 02:59:21;;;;;;;1.23;1.07;;;19.70;43.50;;;;;;5000641;28;90152;-66
2022/03/13 03:01:49;;;;;;;2.63;1.00;;;19.70;43.20;;;;;;5000363;28;88925;-66
2022/03/13 03:04:18;;;;;;;2.07;1.43;;;19.70;43.10;;;;;;4980236;28;88823;-66
2022/03/13 03:06:52;;;;;;;1.43;1.07;;;19.70;43.10;;;;;;4980179;28;90193;-67
2022/03/13 03:09:20;;;;;;;1.20;0.83;;;19.70;43.10;;;;;;4979418;28;89145;-67
2022/03/13 03:11:49;;;;;;;1.83;1.20;;;19.70;43.10;;;;;;4980089;28;89264;-67
2022/03/13 03:14:19;;;;;;;1.07;1.00;;;19.70;43.10;;;;;;4979624;28;88580;-67
2022/03/13 03:16:47;;;;;;;1.00;0.90;;;19.70;43.10;;;;;;4980187;28;90752;-66
2022/03/13 03:19:15;;;;;;;1.10;1.00;;;19.70;43.10;;;;;;4979673;28;90458;-67
2022/03/13 03:21:43;;;;;;;1.13;1.03;;;19.70;43.10;;;;;;4980663;28;89802;-66
2022/03/13 03:24:15;;;;;;;1.40;1.00;;;19.70;43.10;;;;;;4980169;28;88544;-69
2022/03/13 03:26:43;;;;;;;1.60;0.90;;;19.60;43.00;;;;;;4980542;28;92910;-69
2022/03/13 03:29:12;;;;;;;1.30;1.20;;;19.70;43.10;;;;;;4979803;28;90010;-69
2022/03/13 03:31:42;;;;;;;1.43;1.23;;;19.60;43.00;;;;;;4980475;28;88070;-70
2022/03/13 03:34:15;;;;;;;0.70;0.70;;;19.60;43.00;;;;;;4979598;28;88235;-69
2022/03/13 03:36:45;;;;;;;0.83;0.67;;;19.60;43.00;;;;;;4980846;28;93458;-67
2022/03/13 03:39:14;;;;;;;0.73;0.70;;;19.60;43.00;;;;;;4980039;28;90066;-69
2022/03/13 03:41:43;;;;;;;1.77;1.07;;;19.60;43.10;;;;;;4980527;28;88917;-69
2022/03/13 03:44:12;;;;;;;1.20;1.10;;;19.60;43.10;;;;;;4979818;28;88589;-69
2022/03/13 03:46:40;;;;;;;1.13;0.80;;;19.60;43.10;;;;;;4980391;28;91143;-70
2022/03/13 03:49:08;;;;;;;1.30;1.03;;;19.60;43.00;;;;;;4980448;28;91119;-68
2022/03/13 03:51:36;;;;;;;1.27;1.03;;;19.60;43.00;;;;;;4979567;28;88797;-66
2022/03/13 03:54:04;;;;;;;1.60;1.40;;;19.60;43.00;;;;;;4978930;28;88759;-69
2022/03/13 03:56:32;;;;;;;1.07;0.87;;;19.60;43.00;;;;;;4980824;28;90724;-69
2022/03/13 03:59:00;;;;;;;0.70;0.70;;;19.50;43.00;;;;;;4980458;28;89564;-66
2022/03/13 04:01:36;;;;;;;1.13;0.80;;;19.50;42.90;;;;;;4979971;28;88501;-69
2022/03/13 04:04:06;;;;;;;1.13;0.80;;;19.60;43.00;;;;;;4979637;28;88589;-66
2022/03/13 04:06:34;;;;;;;1.70;0.90;;;19.60;43.00;;;;;;4980283;28;90472;-69
2022/03/13 04:09:02;;;;;;;0.77;0.77;;;19.50;42.90;;;;;;4978728;28;89986;-69
2022/03/13 04:11:30;;;;;;;1.27;0.90;;;19.50;42.80;;;;;;4979594;28;89904;-69
2022/03/13 04:13:58;;;;;;;1.40;1.00;;;19.50;42.80;;;;;;4960357;28;88965;-69
2022/03/13 04:16:26;;;;;;;1.70;0.80;;;19.50;42.80;;;;;;4959959;28;90623;-69
2022/03/13 04:18:56;;;;;;;1.43;1.10;;;19.50;42.80;;;;;;4959824;28;89715;-69
2022/03/13 04:21:26;;;;;;;1.13;0.73;;;19.50;42.80;;;;;;4959768;28;88943;-67
2022/03/13 04:23:54;;;;;;;1.43;0.87;;;19.50;42.80;;;;;;4979194;28;88671;-70
2022/03/13 04:26:22;;;;;;;1.90;0.93;;;19.50;42.80;;;;;;4979068;28;90570;-69
2022/03/13 04:28:50;;;;;;;1.00;0.93;;;19.50;42.80;;;;;;4979347;28;88464;-69
2022/03/13 04:31:18;;;;;;;1.97;1.20;;;19.60;42.90;;;;;;4978962;28;88369;-70
2022/03/13 04:33:47;;;;;;;0.70;0.60;;;19.50;42.80;;;;;;4959237;28;88413;-69
2022/03/13 04:36:20;;;;;;;0.80;0.80;;;19.50;42.80;;;;;;4959316;28;90682;-69
2022/03/13 04:38:48;;;;;;;0.60;0.60;;;19.50;42.80;;;;;;4959098;28;90035;-69
2022/03/13 04:41:16;;;;;;;0.87;0.70;;;19.50;42.80;;;;;;4959415;28;88518;-70
2022/03/13 04:43:44;;;;;;;0.90;0.80;;;19.50;42.80;;;;;;4979119;28;88727;-70
2022/03/13 04:46:15;;;;;;;0.90;0.83;;;19.50;42.80;;;;;;4979239;28;90654;-70
2022/03/13 04:48:43;;;;;;;0.70;0.70;;;19.60;42.90;;;;;;4979279;28;92817;-69
2022/03/13 04:51:11;;;;;;;0.70;0.70;;;19.50;42.80;;;;;;4978848;28;89055;-69
2022/03/13 04:53:40;;;;;;;0.73;0.70;;;19.50;42.80;;;;;;4979464;28;88691;-68
2022/03/13 04:56:08;;;;;;;0.73;0.73;;;19.50;42.80;;;;;;4980545;28;89553;-69
2022/03/13 04:58:36;;;;;;;1.27;1.00;;;19.50;42.80;;;;;;4982551;28;92976;-69
2022/03/13 05:01:04;;;;;;;0.83;0.83;;;19.50;42.80;;;;;;4982130;28;89939;-69
2022/03/13 05:03:33;;;;;;;0.77;0.60;;;19.50;42.80;;;;;;4962727;28;88470;-69
2022/03/13 05:06:05;;;;;;;1.13;1.00;;;19.50;42.80;;;;;;4962831;28;90367;-68
2022/03/13 05:08:33;;;;;;;0.50;0.50;;;19.50;42.80;;;;;;4962519;28;90475;-69
2022/03/13 05:11:05;;;;;;;0.67;0.60;;;19.40;42.70;;;;;;4962394;28;88563;-69
2022/03/13 05:13:33;;;;;;;0.83;0.70;;;19.50;42.80;;;;;;4962984;28;88495;-69
2022/03/13 05:16:01;;;;;;;0.90;0.90;;;19.40;42.70;;;;;;4963072;28;89344;-69
2022/03/13 05:18:29;;;;;;;0.80;0.63;;;19.40;42.70;;;;;;4962493;28;89980;-69
2022/03/13 05:20:57;;;;;;;0.70;0.70;;;19.40;42.70;;;;;;4962837;28;88549;-69
2022/03/13 05:23:25;;;;;;;0.60;0.53;;;19.40;42.70;;;;;;4980839;28;88246;-69
2022/03/13 05:25:53;;;;;;;0.70;0.70;;;19.40;42.70;;;;;;4981655;28;90688;-69
2022/03/13 05:28:22;;;;;;;1.10;0.83;;;19.40;42.70;;;;;;4982163;28;93106;-69
2022/03/13 05:30:50;;;;;;;0.50;0.50;;;19.40;42.70;;;;;;4981873;28;88319;-69
2022/03/13 05:33:18;;;;;;;0.50;0.50;;;19.40;42.70;;;;;;4981415;28;88555;-69
2022/03/13 05:35:46;;;;;;;0.93;0.70;;;19.50;42.80;;;;;;4981729;28;90685;-69
2022/03/13 05:38:14;;;;;;;1.07;0.60;;;19.40;42.70;;;;;;4981818;28;89960;-68
2022/03/13 05:40:42;;;;;;;0.83;0.53;;;19.40;42.70;;;;;;4981455;28;88431;-68
2022/03/13 05:43:15;;;;;;;0.50;0.50;;;19.40;42.70;;;;;;4980279;28;88590;-69
2022/03/13 05:45:45;;;;;;;0.60;0.60;;;19.40;42.70;;;;;;4981243;28;90791;-69
2022/03/13 05:48:17;;;;;;;0.77;0.63;;;19.40;42.60;;;;;;4981530;28;89177;-69
2022/03/13 05:50:46;;;;;;;0.80;0.80;;;19.40;42.60;;;;;;4981998;28;89419;-69
2022/03/13 05:53:14;;;;;;;0.77;0.60;;;19.40;42.60;;;;;;4980327;28;88544;-69
2022/03/13 05:55:42;;;;;;;1.37;0.67;;;19.40;42.60;;;;;;4980928;28;90734;-69
2022/03/13 05:58:10;;;;;;;0.47;0.47;;;19.40;42.70;;;;;;4981381;28;90102;-69
2022/03/13 06:00:39;;;;;;;1.80;0.63;;;19.40;42.70;;;;;;4981375;28;88326;-68
2022/03/13 06:03:09;;;;;;;0.50;0.50;;;19.40;42.70;;;;;;4980603;28;88489;-70
2022/03/13 06:05:38;;;;;;;1.33;0.70;;;19.40;42.70;;;;;;4981478;28;90559;-69
2022/03/13 06:08:06;;;;;;;1.37;0.87;;;19.40;42.70;;;;;;4979863;28;88657;-69
2022/03/13 06:10:34;;;;;;;0.70;0.67;;;19.40;42.70;;;;;;4980983;28;88373;-70
2022/03/13 06:13:02;;;;;;;1.13;0.80;;;19.40;42.80;;;;;;4981309;28;88467;-70
2022/03/13 06:15:31;;;;;;;0.60;0.60;;;19.40;42.70;;;;;;4980764;28;90545;-69
2022/03/13 06:17:59;;;;;;;1.13;0.80;;;19.40;42.80;;;;;;4980336;28;89427;-70
2022/03/13 06:20:28;;;;;;;1.00;0.73;;;19.40;42.70;;;;;;4981309;28;88868;-69
2022/03/13 06:22:57;;;;;;;0.60;0.60;;;19.40;42.70;;;;;;4981249;28;88923;-68
2022/03/13 06:25:25;;;;;;;0.80;0.80;;;19.40;42.70;;;;;;4981512;28;90067;-69
2022/03/13 06:27:53;;;;;;;0.80;0.60;;;19.40;42.70;;;;;;4981158;28;91807;-68
2022/03/13 06:30:21;;;;;;;0.70;0.60;;;19.40;42.70;;;;;;4981151;28;89249;-68
2022/03/13 06:32:50;;;;;;;1.00;0.80;;;19.40;42.70;;;;;;4980729;28;88649;-69
2022/03/13 06:35:19;;;;;;;0.87;0.70;;;19.30;42.60;;;;;;4981195;28;90916;-68
2022/03/13 06:37:49;;;;;;;1.60;0.97;;;19.40;42.80;;;;;;4980486;28;89872;-68
2022/03/13 06:40:20;;;;;;;1.40;1.00;;;19.30;42.70;;;;;;4980806;28;89652;-68
2022/03/13 06:42:48;;;;;;;0.80;0.80;;;19.30;42.70;;;;;;4980712;28;88541;-69
2022/03/13 06:45:16;;;;;;;0.70;0.63;;;19.30;42.70;;;;;;4981544;28;90275;-69
2022/03/13 06:47:46;;;;;;;0.93;0.70;;;19.30;42.70;;;;;;4981590;28;89657;-66
2022/03/13 06:50:15;;;;;;;1.00;0.70;;;19.30;42.70;;;;;;4980260;28;88601;-66
2022/03/13 06:52:44;;;;;;;0.93;0.80;;;19.30;42.70;;;;;;4981115;28;88484;-67
2022/03/13 06:55:14;;;;;;;0.57;0.57;;;19.30;42.70;;;;;;4981147;28;93499;-66
2022/03/13 06:57:43;;;;;;;2.47;0.90;;;19.30;42.70;;;;;;4980998;28;88878;-66
2022/03/13 07:00:12;;;;;;;0.70;0.70;;;19.30;42.70;;;;;;4980788;28;88574;-67
2022/03/13 07:02:47;;;;;;;0.73;0.70;;;19.30;42.60;;;;;;4986816;28;88312;-67
2022/03/13 07:05:15;;;;;;;0.90;0.90;;;19.30;42.60;;;;;;5000431;28;89402;-66
2022/03/13 07:07:44;;;;;;;0.60;0.50;;;19.30;42.70;;;;;;5000612;28;89440;-66
2022/03/13 07:10:13;;;;;;;1.07;0.70;;;19.30;42.60;;;;;;4999956;28;89570;-67
2022/03/13 07:12:42;;;;;;;0.80;0.80;;;19.30;42.60;;;;;;5000360;28;88493;-66
2022/03/13 07:15:12;;;;;;;0.97;0.83;;;19.30;42.60;;;;;;5000145;28;90846;-66
2022/03/13 07:17:41;;;;;;;0.77;0.77;;;19.20;42.60;;;;;;5000028;28;90022;-66
2022/03/13 07:20:09;;;;;;;0.60;0.60;;;19.30;42.60;;;;;;4999988;28;88980;-66
2022/03/13 07:22:37;;;;;;;1.27;1.10;;;19.30;42.60;;;;;;5000147;28;89015;-66
2022/03/13 07:25:06;;;;;;;1.43;1.00;;;19.30;42.60;;;;;;4999797;28;90621;-66
2022/03/13 07:27:36;;;;;;;1.10;0.93;;;19.30;42.60;;;;;;4999985;28;90213;-66
2022/03/13 07:30:05;;;;;;;1.10;1.00;;;19.30;42.60;;;;;;4999590;28;89908;-66
2022/03/13 07:32:34;;;;;;;1.37;1.23;;;19.30;42.60;;;;;;5000333;28;88516;-66
2022/03/13 07:35:02;;;;;;;0.80;0.80;;;19.30;42.60;;;;;;4999888;28;90164;-66
2022/03/13 07:37:30;;;;;;;0.80;0.80;;;19.30;42.60;;;;;;5000348;28;90025;-66
2022/03/13 07:39:58;;;;;;;1.87;0.83;;;19.00;43.00;;;;;;4999822;28;88730;-67
2022/03/13 07:42:26;;;;;;;0.73;0.73;;;19.30;42.60;;;;;;4980039;28;88540;-66
2022/03/13 07:44:55;;;;;;;1.33;1.03;;;19.40;42.60;;;;;;4979968;28;90702;-66
2022/03/13 07:47:24;;;;;;;1.17;0.80;;;19.50;42.70;;;;;;4979602;28;90126;-66
2022/03/13 07:49:52;;;;;;;2.30;1.00;;;19.30;42.50;;;;;;4993294;28;88433;-66
2022/03/13 07:52:20;;;;;;;2.80;0.90;;;19.40;42.60;;;;;;4999940;28;88503;-66
2022/03/13 07:54:48;;;;;;;1.33;0.90;;;19.40;42.60;;;;;;4999359;28;90255;-66
2022/03/13 07:57:16;;;;;;;1.33;0.70;;;19.40;42.60;;;;;;4999614;28;90380;-66
2022/03/13 07:59:45;;;;;;;1.23;1.13;;;19.40;42.60;;;;;;4999082;28;88532;-66
2022/03/13 08:02:15;;;;;;;0.87;0.77;;;19.40;42.60;;;;;;4999424;28;88393;-67
2022/03/13 08:04:43;;;;;;;2.20;0.67;;;19.30;42.50;;;;;;4979493;28;90636;-66
2022/03/13 08:07:11;;;;;;;0.73;0.70;;;19.40;42.60;;;;;;4980268;28;91996;-66
2022/03/13 08:09:39;;;;;;;1.07;0.70;;;19.40;42.60;;;;;;4979365;28;88369;-66
2022/03/13 08:12:08;;;;;;;1.17;1.00;;;19.40;42.60;;;;;;4979555;28;89306;-66
2022/03/13 08:14:36;;;;;;;1.20;0.80;;;19.40;42.60;;;;;;4979127;28;90681;-66
2022/03/13 08:17:05;;;;;;;0.80;0.80;;;19.40;42.60;;;;;;4979077;28;90169;-69
2022/03/13 08:19:34;;;;;;;0.77;0.60;;;19.40;42.50;;;;;;4978859;28;89818;-69
2022/03/13 08:22:03;;;;;;;1.33;1.00;;;19.40;42.50;;;;;;4979345;28;88653;-69
2022/03/13 08:24:31;;;;;;;1.13;1.00;;;19.40;42.50;;;;;;4979850;28;90616;-69
2022/03/13 08:26:59;;;;;;;1.00;1.00;;;19.40;42.50;;;;;;4979768;28;92940;-67
2022/03/13 08:29:34;;;;;;;1.27;0.90;;;19.40;42.50;;;;;;4978923;28;88432;-66
2022/03/13 08:32:06;;;;;;;0.93;0.63;;;19.40;42.50;;;;;;4982976;28;88454;-66
2022/03/13 08:34:38;;;;;;;1.03;0.70;;;19.40;42.40;;;;;;4983387;28;92897;-67
2022/03/13 08:37:07;;;;;;;1.27;1.17;;;19.40;42.40;;;;;;4983002;28;89837;-66
2022/03/13 08:39:35;;;;;;;3.60;1.40;;;19.40;42.40;;;;;;4981688;28;88319;-66
2022/03/13 08:42:04;;;;;;;1.90;1.23;;;19.40;42.50;;;;;;4983113;28;88291;-66
2022/03/13 08:44:32;;;;;;;1.53;1.43;;;19.40;42.50;;;;;;4982425;28;90622;-66
2022/03/13 08:47:00;;;;;;;0.80;0.80;;;19.40;42.50;;;;;;4982397;28;90062;-66
2022/03/13 08:49:28;;;;;;;1.30;1.20;;;19.40;42.50;;;;;;4982009;28;88845;-67
2022/03/13 08:51:57;;;;;;;1.23;1.00;;;19.40;42.50;;;;;;4982954;28;88429;-66
2022/03/13 08:54:25;;;;;;;2.67;1.50;;;19.40;42.50;;;;;;4982479;28;93421;-66
2022/03/13 08:56:53;;;;;;;1.87;1.30;;;19.40;42.50;;;;;;4982220;28;89985;-66
2022/03/13 08:59:22;;;;;;;1.80;1.47;;;19.40;42.40;;;;;;4981839;28;91537;-66
2022/03/13 09:01:50;;;;;;;2.03;1.47;;;19.40;42.40;;;;;;4982189;28;88464;-67
2022/03/13 09:04:18;;;;;;;8.90;1.40;;;19.40;42.50;;;;;;4978068;28;90724;-67
2022/03/13 09:06:46;;;;;;;2.07;1.10;;;19.40;42.40;;;;;;4981160;28;91605;-66
2022/03/13 09:09:18;;;;;;;1.43;0.80;;;19.50;42.50;;;;;;4979578;28;89863;-66
2022/03/13 09:11:47;;;;;;;1.30;1.07;;;19.50;42.50;;;;;;4981445;28;88438;-65
2022/03/13 09:14:15;;;;;;;2.43;1.17;;;19.50;42.50;;;;;;4981545;28;89649;-66
2022/03/13 09:16:43;;;;;;;2.60;0.90;;;19.60;43.20;;;;;;4981646;28;88861;-66
2022/03/13 09:19:11;;;;;;;1.90;1.23;;;19.80;42.50;;;;;;4981699;28;90543;-66
2022/03/13 09:21:39;;;;;;;1.20;1.07;;;20.00;42.50;;;;;;4981612;28;88796;-65
2022/03/13 09:24:08;;;;;;;2.00;1.27;;;20.30;42.50;;;;;;4980802;28;89576;-66
2022/03/13 09:26:42;;;;;;;1.83;1.30;;;20.60;42.40;;;;;;4981093;28;90228;-66
2022/03/13 09:29:10;;;;;;;1.40;1.07;;;20.90;42.30;;;;;;4981006;28;88870;-66
2022/03/13 09:31:38;;;;;;;1.10;0.70;;;21.20;42.20;;;;;;4981615;28;89165;-65
2022/03/13 09:34:06;;;;;;;1.27;1.17;;;21.40;42.00;;;;;;4981146;28;93476;-66
2022/03/13 09:36:36;;;;;;;0.90;0.80;;;21.70;41.90;;;;;;4981575;28;89180;-66
2022/03/13 09:39:05;;;;;;;3.73;1.10;;;21.90;41.80;;;;;;4981059;28;89899;-66
2022/03/13 09:41:33;;;;;;;1.50;1.20;;;22.00;41.70;;;;;;4982355;28;88374;-66
2022/03/13 09:44:02;;;;;;;2.33;1.00;;;22.10;41.60;;;;;;4981465;28;90808;-66
2022/03/13 09:46:30;;;;;;;1.60;1.40;;;22.20;41.50;;;;;;4979844;28;92948;-66
2022/03/13 09:48:59;;;;;;;2.40;1.10;;;22.20;41.50;;;;;;4966526;28;88518;-65
2022/03/13 09:51:27;;;;;;;1.87;1.20;;;22.20;42.10;;;;;;4981361;28;88675;-65
2022/03/13 09:53:55;;;;;;;0.93;0.73;;;22.20;41.50;;;;;;4981166;28;90722;-65
2022/03/13 09:56:23;;;;;;;3.07;1.20;;;22.20;41.50;;;;;;4980781;28;90047;-66
2022/03/13 09:58:51;;;;;;;1.27;1.03;;;22.30;41.50;;;;;;4980113;28;88752;-66
2022/03/13 10:01:21;;;;;;;1.33;1.13;;;22.50;41.50;;;;;;4982169;28;88356;-66
2022/03/13 10:03:49;;;;;;;1.70;1.10;;;22.60;41.40;;;;;;4979618;28;90612;-67
2022/03/13 10:06:17;;;;;;;1.10;0.80;;;22.80;41.30;;;;;;4979339;28;90092;-67
2022/03/13 10:08:45;;;;;;;1.13;0.97;;;23.10;41.90;;;;;;4980704;28;88784;-67
2022/03/13 10:11:13;;;;;;;1.43;1.10;;;23.20;41.10;;;;;;4981319;28;88573;-67
2022/03/13 10:13:42;;;;;;;1.20;1.00;;;23.40;41.70;;;;;;4980648;28;93577;-67
2022/03/13 10:16:15;;;;;;;1.30;1.20;;;23.60;41.00;;;;;;4979739;28;89075;-68
2022/03/13 10:18:45;;;;;;;1.33;1.23;;;23.60;40.80;;;;;;4980352;28;89542;-67
2022/03/13 10:21:16;;;;;;;1.73;1.40;;;23.70;40.70;;;;;;4980444;28;88512;-67
2022/03/13 10:23:47;;;;;;;1.43;1.10;;;23.70;40.70;;;;;;4980758;28;90719;-67
2022/03/13 10:26:19;;;;;;;1.90;1.50;;;23.70;40.60;;;;;;4979768;28;89127;-67
2022/03/13 10:28:47;;;;;;;2.00;1.10;;;23.70;40.60;;;;;;4979868;28;88781;-67
2022/03/13 10:31:16;;;;;;;1.83;1.47;;;23.80;40.70;;;;;;4980364;28;88793;-67
2022/03/13 10:34:00;;;;;;;2.33;1.27;;;23.90;40.70;;;;;;4980515;28;90564;-67
2022/03/13 10:36:34;;;;;;;1.00;0.90;;;24.00;40.60;;;;;;4979501;28;89024;-67
2022/03/13 10:39:04;;;;;;;1.27;0.93;;;24.10;40.50;;;;;;4980066;28;88502;-67
2022/03/13 10:41:43;;;;;;;1.07;0.97;;;24.30;40.50;;;;;;4979988;28;88578;-73
2022/03/13 10:44:15;;;;;;;1.77;1.07;;;24.40;40.30;;;;;;4980914;28;90715;-73
2022/03/13 10:46:44;;;;;;;1.33;1.17;;;24.50;40.20;;;;;;4979806;28;89107;-73
2022/03/13 10:49:14;;;;;;;1.23;1.13;;;24.60;40.20;;;;;;4979623;28;89758;-73
2022/03/13 10:51:47;;;;;;;1.37;1.23;;;24.50;40.10;;;;;;4980209;28;88520;-74
2022/03/13 10:54:28;;;;;;;2.03;1.10;;;24.50;40.10;;;;;;4979690;28;90621;-68
2022/03/13 10:57:06;;;;;;;4.03;1.20;;;24.40;40.10;;;;;;4980053;28;90018;-66
2022/03/13 10:59:34;;;;;;;3.80;1.33;;;24.40;40.20;;;;;;4979699;28;89143;-67
2022/03/13 11:02:13;;;;;;;2.33;1.30;;;24.30;40.20;;;;;;4981347;28;88467;-66
2022/03/13 11:04:50;;;;;;;1.30;1.20;;;24.20;40.30;;;;;;4980584;28;90919;-66
2022/03/13 11:07:19;;;;;;;2.40;1.07;;;24.10;40.20;;;;;;4979492;28;89914;-66
2022/03/13 11:09:47;;;;;;;2.27;1.13;;;24.10;40.30;;;;;;4979245;28;88892;-66
2022/03/13 11:12:17;;;;;;;1.73;1.37;;;24.00;40.40;;;;;;4980644;28;88452;-66
2022/03/13 11:14:46;;;;;;;2.10;1.10;;;23.90;40.30;;;;;;4980117;28;91052;-66
2022/03/13 11:17:14;;;;;;;1.33;1.07;;;23.80;40.40;;;;;;4979467;28;90010;-66
2022/03/13 11:19:42;;;;;;;1.90;1.17;;;23.80;40.50;;;;;;4979776;28;88779;-66
2022/03/13 11:22:11;;;;;;;1.27;1.17;;;23.70;40.50;;;;;;4980634;28;88499;-66
2022/03/13 11:24:40;;;;;;;3.53;1.10;;;23.60;40.50;;;;;;4980188;28;89506;-66
2022/03/13 11:27:10;;;;;;;1.27;1.13;;;23.60;40.60;;;;;;4978962;28;90207;-67
2022/03/13 11:29:42;;;;;;;1.37;1.00;;;23.50;40.70;;;;;;4979386;28;89036;-66
2022/03/13 11:32:32;;;;;;;2.27;1.00;;;23.50;40.80;;;;;;4980384;28;88470;-67
2022/03/13 11:35:23;;;;;;;1.10;0.97;;;23.40;40.80;;;;;;4979793;28;89438;-66
2022/03/13 11:37:54;;;;;;;1.90;0.80;;;23.30;40.80;;;;;;4978200;28;90059;-66
2022/03/13 11:40:30;;;;;;;1.10;0.90;;;23.30;40.80;;;;;;4979662;28;89848;-66
2022/03/13 11:43:08;;;;;;;1.10;1.00;;;23.20;40.90;;;;;;4980150;28;88612;-66
2022/03/13 11:45:39;;;;;;;1.40;0.80;;;23.20;41.00;;;;;;4978811;28;90909;-66
2022/03/13 11:48:41;;;;;;;1.90;1.27;;;23.10;40.90;;;;;;4979390;28;88527;-66
2022/03/13 11:51:09;;;;;;;1.37;0.90;;;23.00;41.00;;;;;;4959792;28;88480;-66
2022/03/13 11:53:49;;;;;;;0.93;0.87;;;23.00;41.00;;;;;;4960844;28;88427;-66
2022/03/13 11:56:26;;;;;;;1.13;0.90;;;22.90;41.00;;;;;;4959374;28;90712;-67
2022/03/13 11:59:01;;;;;;;1.10;0.83;;;22.90;41.10;;;;;;4963453;28;90140;-66
2022/03/13 12:01:37;;;;;;;4.87;0.93;;;22.90;41.10;;;;;;4979330;28;89152;-66
2022/03/13 12:04:24;;;;;;;2.13;1.07;;;22.80;41.10;;;;;;4992989;28;88433;-66
2022/03/13 12:06:56;;;;;;;2.40;1.37;;;22.80;41.20;;;;;;4998636;28;90688;-66
2022/03/13 12:09:42;;;;;;;1.00;0.83;;;22.80;41.20;;;;;;4988456;28;89727;-66
2022/03/13 12:12:13;;;;;;;1.03;0.93;;;22.70;41.10;;;;;;4979348;28;88947;-66
2022/03/13 12:15:01;;;;;;;1.03;1.03;;;22.70;41.20;;;;;;4980256;28;88390;-66
2022/03/13 12:17:30;;;;;;;1.43;1.00;;;22.70;41.20;;;;;;4978624;28;90715;-67
2022/03/13 12:19:59;;;;;;;0.73;0.70;;;22.70;41.20;;;;;;4993089;28;93001;-66
2022/03/13 12:22:29;;;;;;;1.07;0.83;;;22.70;41.30;;;;;;4999898;28;88969;-66
2022/03/13 12:24:59;;;;;;;1.43;1.10;;;22.70;41.30;;;;;;4994016;28;88516;-66
2022/03/13 12:27:27;;;;;;;1.47;1.10;;;22.60;41.30;;;;;;4983403;28;90742;-67
2022/03/13 12:29:56;;;;;;;3.53;1.00;;;22.70;41.40;;;;;;4984485;28;90068;-67
2022/03/13 12:32:31;;;;;;;1.10;1.00;;;22.60;41.30;;;;;;4984566;28;89930;-67
2022/03/13 12:34:59;;;;;;;4.43;1.40;;;22.60;41.40;;;;;;4977493;28;90016;-67
2022/03/13 12:37:28;;;;;;;2.63;1.70;;;22.60;41.30;;;;;;4975062;28;90878;-67
2022/03/13 12:39:57;;;;;;;6.67;2.10;;;22.60;41.40;;;;;;4975609;28;92620;-66
2022/03/13 12:42:27;;;;;;;2.53;1.77;;;22.50;41.60;;;;;;4976561;28;88854;-68
2022/03/13 12:45:04;;;;;;;3.87;2.40;;;22.50;41.80;;;;;;4975516;28;88414;-70
2022/03/13 12:47:37;;;;;;;3.43;2.17;;;22.50;42.00;;;;;;4976828;28;90215;-71
2022/03/13 12:50:09;;;;;;;3.53;2.00;;;22.50;42.10;;;;;;4976449;28;92289;-70
2022/03/13 12:52:37;;;;;;;5.47;2.80;;;22.50;42.20;;;;;;4975304;28;89375;-69
2022/03/13 12:55:06;;;;;;;2.13;1.93;;;22.50;42.20;;;;;;4974739;28;88671;-70
2022/03/13 12:57:36;;;;;;;2.60;1.80;;;22.60;42.30;;;;;;4974455;28;90952;-71
2022/03/13 13:00:05;;;;;;;2.87;2.17;;;22.60;42.30;;;;;;4976101;28;88975;-71